| time (UTC) | temp C | wind direction | speed KPH | gust KPH | rain 1hr cm | rain 24hr cm | rain mn cm | humidity % | barometer mb |
| 20260508074551 | 15 | 302 | 4.8 | 12.9 | 0.00 | 0.86 | 0.86 | 85 | 1004.1 |
| 20260508073106 | 15 | 315 | 4.8 | 16.1 | 0.03 | 0.86 | 0.86 | 86 | 1003.8 |
| 20260508071511 | 15 | 296 | 8.0 | 16.1 | 0.05 | 0.86 | 0.86 | 88 | 1003.5 |
| 20260508070045 | 15 | 271 | 8.0 | 29.0 | 0.13 | 0.86 | 0.86 | 86 | 1003.5 |
| 20260508064517 | 16 | 286 | 11.3 | 37.0 | 0.23 | 0.86 | 0.86 | 86 | 1002.9 |
| 20260508063023 | 17 | 269 | 12.9 | 45.1 | 0.33 | 0.84 | 0.84 | 88 | 1004.3 |
| 20260508061541 | 17 | 286 | 14.5 | 37.0 | 0.46 | 0.79 | 0.79 | 88 | 1003.0 |
| 20260508060053 | 18 | 286 | 12.9 | 38.6 | 0.61 | 0.71 | 0.71 | 85 | 1003.1 |
| 20260508054523 | 19 | 300 | 1.6 | 9.7 | 0.46 | 0.61 | 0.61 | 89 | 1002.8 |
| 20260508053112 | 20 | 336 | 8.0 | 20.9 | 0.36 | 0.51 | 0.51 | 87 | 1002.8 |
| 20260508051509 | 20 | 332 | 3.2 | 11.3 | 0.10 | 0.23 | 0.30 | 85 | 1002.2 |
| 20260508050040 | 20 | 333 | 3.2 | 9.7 | 0.00 | 0.15 | 0.15 | 82 | 1001.4 |
| 20260508044501 | 20 | 9 | 0.0 | 4.8 | 0.05 | 0.15 | 0.15 | 85 | 1001.4 |
| 20260508043037 | 20 | 17 | 0.0 | 8.0 | 0.05 | 0.15 | 0.15 | 84 | 1001.4 |
| 20260508041612 | 20 | 345 | 1.6 | 8.0 | 0.05 | 0.15 | 0.15 | 84 | 1001.4 |
| 20260508040005 | 20 | 340 | 0.0 | 12.9 | 0.15 | 0.15 | 0.15 | 83 | 1001.7 |
| 20260508034510 | 20 | 302 | 3.2 | 19.3 | 0.10 | 0.10 | 0.10 | 80 | 1002.0 |
| 20260508033030 | 20 | 332 | 4.8 | 14.5 | 0.10 | 0.10 | 0.10 | 80 | 1002.0 |
| 20260508031601 | 21 | 303 | 4.8 | 25.7 | 0.10 | 0.10 | 0.10 | 79 | 1002.2 |
| 20260508030022 | 23 | 289 | 11.3 | 25.7 | 0.00 | 0.00 | 0.00 | 63 | 1002.5 |
| 20260508024549 | 25 | 235 | 17.7 | 41.8 | 0.00 | 0.00 | 0.00 | 59 | 1002.4 |
| 20260508023001 | 28 | 290 | 8.0 | 20.9 | 0.00 | 0.00 | 0.00 | 50 | 1000.4 |
| 20260508021537 | 28 | 360 | 8.0 | 25.7 | 0.00 | 0.00 | 0.00 | 49 | 999.7 |
| 20260508020054 | 28 | 17 | 9.7 | 24.1 | 0.00 | 0.00 | 0.00 | 48 | 999.5 |
| 20260508014601 | 28 | 13 | 12.9 | 32.2 | 0.00 | 0.00 | 0.00 | 48 | 999.6 |
| 20260508013021 | 28 | 5 | 14.5 | 29.0 | 0.00 | 0.00 | 0.00 | 48 | 1000.0 |
| 20260508011543 | 27 | 348 | 1.6 | 12.9 | 0.00 | 0.00 | 0.00 | 53 | 999.9 |
| 20260508010050 | 26 | 102 | 1.6 | 11.3 | 0.00 | 0.00 | 0.00 | 54 | 999.9 |
| 20260508004515 | 26 | 69 | 4.8 | 9.7 | 0.00 | 0.00 | 0.00 | 55 | 1000.0 |
| 20260508003043 | 26 | 44 | 1.6 | 6.4 | 0.00 | 0.00 | 0.00 | 55 | 1000.0 |
| 20260508001520 | 27 | 360 | 3.2 | 12.9 | 0.00 | 0.00 | 0.00 | 54 | 1000.0 |
| 20260508000032 | 27 | 34 | 3.2 | 16.1 | 0.00 | 0.00 | 0.00 | 54 | 999.9 |
| 20260507234600 | 26 | 65 | 0.0 | 6.4 | 0.00 | 0.00 | 0.00 | 59 | 999.9 |
| 20260507233022 | 26 | 66 | 0.0 | 4.8 | 0.00 | 0.00 | 0.00 | 60 | 1000.2 |
| 20260507231540 | 25 | 66 | 0.0 | 4.8 | 0.00 | 0.00 | 0.00 | 63 | 1000.3 |
| 20260507230059 | 25 | 92 | 0.0 | 6.4 | 0.00 | 0.00 | 0.00 | 62 | 1000.3 |
| 20260507224504 | 25 | 64 | 0.0 | 3.2 | 0.00 | 0.00 | 0.00 | 64 | 1000.3 |
| 20260507223008 | 25 | 84 | 0.0 | 0.0 | 0.00 | 0.00 | 0.00 | 62 | 1000.3 |
| 20260507221509 | 26 | 80 | 0.0 | 3.2 | 0.00 | 0.00 | 0.00 | 60 | 1000.5 |
| 20260507220040 | 27 | 69 | 0.0 | 3.2 | 0.00 | 0.00 | 0.00 | 56 | 1000.5 |
| 20260507214505 | 27 | 20 | 0.0 | 1.6 | 0.00 | 0.00 | 0.00 | 53 | 1000.6 |
| 20260507213034 | 28 | 331 | 1.6 | 6.4 | 0.00 | 0.00 | 0.00 | 50 | 1000.8 |
| 20260507211549 | 28 | 349 | 3.2 | 9.7 | 0.00 | 0.00 | 0.00 | 50 | 1000.7 |
| 20260507210006 | 29 | 349 | 3.2 | 12.9 | 0.00 | 0.00 | 0.00 | 49 | 1000.8 |
| 20260507204533 | 29 | 334 | 3.2 | 14.5 | 0.00 | 0.00 | 0.00 | 48 | 1000.8 |
| 20260507203054 | 29 | 345 | 3.2 | 9.7 | 0.00 | 0.00 | 0.00 | 48 | 1000.7 |
| 20260507201529 | 29 | 22 | 1.6 | 9.7 | 0.00 | 0.00 | 0.00 | 49 | 1000.4 |
| 20260507200049 | 29 | 350 | 1.6 | 8.0 | 0.00 | 0.00 | 0.00 | 49 | 1000.6 |
| 20260507194621 | 30 | 341 | 3.2 | 9.7 | 0.00 | 0.00 | 0.00 | 47 | 1000.6 |
| 20260507193029 | 30 | 340 | 4.8 | 14.5 | 0.00 | 0.00 | 0.00 | 47 | 1000.9 |
| 20260507191600 | 30 | 355 | 4.8 | 19.3 | 0.00 | 0.00 | 0.00 | 47 | 1001.0 |
| 20260507190010 | 30 | 348 | 3.2 | 12.9 | 0.00 | 0.00 | 0.00 | 47 | 1000.7 |
| 20260507184533 | 30 | 327 | 3.2 | 17.7 | 0.00 | 0.00 | 0.00 | 47 | 1000.8 |
| 20260507183047 | 30 | 319 | 4.8 | 16.1 | 0.00 | 0.00 | 0.00 | 47 | 1000.8 |
| 20260507181501 | 30 | 311 | 3.2 | 16.1 | 0.00 | 0.00 | 0.00 | 46 | 1000.6 |
| 20260507180036 | 31 | 313 | 6.4 | 12.9 | 0.00 | 0.00 | 0.00 | 48 | 1000.5 |
| 20260507174516 | 31 | 288 | 4.8 | 20.9 | 0.00 | 0.00 | 0.00 | 46 | 1000.6 |
| 20260507173035 | 31 | 305 | 14.5 | 30.6 | 0.00 | 0.00 | 0.00 | 45 | 1000.6 |
| 20260507171604 | 31 | 32 | 6.4 | 27.4 | 0.00 | 0.00 | 0.00 | 44 | 1000.6 |
| 20260507170009 | 31 | 360 | 12.9 | 32.2 | 0.00 | 0.00 | 0.00 | 44 | 1000.8 |
| 20260507164548 | 31 | 322 | 16.1 | 37.0 | 0.00 | 0.00 | 0.00 | 45 | 1001.1 |
| 20260507163059 | 31 | 344 | 11.3 | 24.1 | 0.00 | 0.00 | 0.00 | 45 | 1001.4 |
| 20260507161531 | 31 | 290 | 11.3 | 35.4 | 0.00 | 0.00 | 0.00 | 46 | 1001.9 |
| 20260507160033 | 31 | 349 | 17.7 | 35.4 | 0.00 | 0.00 | 0.00 | 46 | 1002.1 |
| 20260507154550 | 31 | 351 | 9.7 | 27.4 | 0.00 | 0.00 | 0.00 | 48 | 1002.3 |
| 20260507153002 | 31 | 302 | 12.9 | 27.4 | 0.00 | 0.00 | 0.00 | 48 | 1002.8 |
| 20260507151534 | 30 | 308 | 11.3 | 29.0 | 0.00 | 0.00 | 0.00 | 51 | 1003.1 |
| 20260507150059 | 30 | 23 | 11.3 | 27.4 | 0.00 | 0.00 | 0.00 | 50 | 1003.7 |
| 20260507144517 | 30 | 360 | 14.5 | 29.0 | 0.00 | 0.00 | 0.00 | 49 | 1003.9 |
| 20260507143025 | 30 | 320 | 14.5 | 27.4 | 0.00 | 0.00 | 0.00 | 50 | 1004.2 |
| 20260507141607 | 30 | 321 | 11.3 | 27.4 | 0.00 | 0.00 | 0.00 | 51 | 1004.8 |
| 20260507140055 | 29 | 0.0 | 0.0 | 0.00 | 0.00 | 0.00 | 54 | 1005.3 | |
| 20260507134517 | 29 | 3.2 | 14.5 | 0.00 | 0.00 | 0.00 | 58 | 1005.7 | |
| 20260507133036 | 27 | 0.0 | 0.0 | 0.00 | 0.00 | 0.00 | 62 | 1006.3 | |
| 20260507131559 | 27 | 0.0 | 0.0 | 0.00 | 0.00 | 0.00 | 63 | 1006.6 | |
| 20260507130030 | 27 | 0.0 | 0.0 | 0.00 | 0.00 | 0.00 | 63 | 1006.8 | |
| 20260507124551 | 27 | 0.0 | 0.0 | 0.00 | 0.00 | 0.00 | 66 | 1006.9 | |
| 20260507123007 | 26 | 0.0 | 0.0 | 0.00 | 0.00 | 0.00 | 68 | 1007.0 | |
| 20260507121541 | 25 | 0.0 | 0.0 | 0.00 | 0.00 | 0.00 | 77 | 1006.8 | |
| 20260507120044 | 24 | 0.0 | 0.0 | 0.00 | 0.00 | 0.00 | 81 | 1007.0 | |
| 20260507114544 | 24 | 144 | 0.0 | 1.6 | 0.00 | 0.00 | 0.00 | 77 | 1007.2 |
| 20260507113048 | 23 | 144 | 0.0 | 3.2 | 0.00 | 0.00 | 0.00 | 79 | 1006.9 |
| 20260507111503 | 23 | 144 | 0.0 | 3.2 | 0.00 | 0.00 | 0.00 | 80 | 1006.9 |
| 20260507110037 | 22 | 144 | 0.0 | 3.2 | 0.00 | 0.00 | 0.00 | 83 | 1006.7 |
| 20260507104559 | 21 | 144 | 0.0 | 3.2 | 0.00 | 0.00 | 0.00 | 83 | 1006.7 |
| 20260507103009 | 21 | 144 | 1.6 | 3.2 | 0.00 | 0.00 | 0.00 | 83 | 1006.9 |
| 20260507101548 | 21 | 103 | 1.6 | 3.2 | 0.00 | 0.00 | 0.00 | 83 | 1006.7 |
| 20260507100109 | 21 | 103 | 0.0 | 3.2 | 0.00 | 0.00 | 0.00 | 82 | 1006.8 |
| 20260507094526 | 21 | 102 | 1.6 | 3.2 | 0.00 | 0.00 | 0.00 | 81 | 1006.9 |
| 20260507093050 | 21 | 91 | 0.0 | 1.6 | 0.00 | 0.00 | 0.00 | 82 | 1006.7 |
| 20260507091527 | 21 | 91 | 1.6 | 1.6 | 0.00 | 0.00 | 0.00 | 81 | 1006.7 |
| 20260507090055 | 21 | 91 | 0.0 | 3.2 | 0.00 | 0.00 | 0.00 | 82 | 1006.7 |
| 20260507084512 | 21 | 90 | 0.0 | 3.2 | 0.00 | 0.00 | 0.00 | 82 | 1006.7 |
| 20260507083022 | 21 | 90 | 0.0 | 3.2 | 0.00 | 0.00 | 0.00 | 83 | 1006.7 |
| 20260507081544 | 21 | 90 | 0.0 | 3.2 | 0.00 | 0.00 | 0.00 | 83 | 1006.9 |
| 20260507080054 | 21 | 90 | 0.0 | 3.2 | 0.00 | 0.00 | 0.00 | 83 | 1007.0 |